South Russell, Ohio
Current Conditions -  °F | °C
As of 5:45 PM on Thursday 27 Nov 2014 (Local Time) from KCGF Reporting Station
Snow Showers Snow Showers  
Wind Chill: 24°   Ceiling: 700
Heat Index: 34°   Visibility: 3mi
Dew Point: 30°   Wind: 14mph
Humidity: 87%   Direction: 290°WNW
Pressure: 30.17"   Gusts: 23mph
Location:  41.4475°N, 81.4018°W
Report Text: KCGF 272245Z 29012G20KT 3SM -SHSN BKN007 OVC015 01/M01 A3017
Loading
Personal Weather Stations






























Interactive Weather Map New forecast layout! Learn more

10-Day Weather Forecast

Advertisements
Track Severe Weather on mobile